Time;durP1;ratioP1;P1;durP2;ratioP2;P2;SDS_P1;SDS_P2;PMS_P1;PMS_P2;Temp;Humidity;BMP_temperature;BMP_pressure;BME280_temperature;BME280_humidity;BME280_pressure;Samples;Min_cycle;Max_cycle;Signal;HPM_P1;HPM_P2
2020/07/05 00:00:56;;;;;;;5.9;3.8;;;;;;;15.21;88.75586;95530.83;;;;
2020/07/05 00:02:02;;;;;;;4.1;3.8;;;;;;;15.18;89.55762;95537.18;;;;
2020/07/05 00:03:03;;;;;;;4.1;3.8;;;;;;;15.18;89.55762;95537.18;;;;
2020/07/05 00:04:04;;;;;;;4.1;3.8;;;;;;;15.18;89.55762;95537.18;;;;
2020/07/05 00:05:05;;;;;;;4.1;3.8;;;;;;;15.18;89.55762;95537.18;;;;
2020/07/05 00:06:06;;;;;;;4.1;3.8;;;;;;;15.18;89.55762;95537.18;;;;
2020/07/05 00:07:06;;;;;;;4.1;3.8;;;;;;;15.18;89.55762;95537.18;;;;
2020/07/05 00:08:09;;;;;;;4.1;3.8;;;;;;;15.18;89.55762;95537.18;;;;
2020/07/05 00:09:10;;;;;;;4.1;3.8;;;;;;;15.18;89.55762;95537.18;;;;
2020/07/05 00:10:10;;;;;;;4.1;3.8;;;;;;;15.18;89.55762;95537.18;;;;
2020/07/05 00:11:11;;;;;;;4.1;3.8;;;;;;;15.18;89.55762;95537.18;;;;
2020/07/05 00:12:12;;;;;;;4.1;3.8;;;;;;;15.18;89.55762;95537.18;;;;
2020/07/05 00:13:13;;;;;;;4.699999;4.3;;;;;;;15.11;89.91016;95543.78;;;;
2020/07/05 00:14:13;;;;;;;4.699999;4.3;;;;;;;15.11;89.91016;95543.78;;;;
2020/07/05 00:15:14;;;;;;;4.699999;4.3;;;;;;;15.11;89.91016;95543.78;;;;
2020/07/05 00:16:15;;;;;;;4.699999;4.3;;;;;;;15.11;89.91016;95543.78;;;;
2020/07/05 00:17:15;;;;;;;4.699999;4.3;;;;;;;15.11;89.91016;95543.78;;;;
2020/07/05 00:18:16;;;;;;;4.699999;4.3;;;;;;;15.11;89.91016;95543.78;;;;
2020/07/05 00:19:16;;;;;;;4.699999;4.3;;;;;;;15.11;89.91016;95543.78;;;;
2020/07/05 00:20:17;;;;;;;4.699999;4.3;;;;;;;15.11;89.91016;95543.78;;;;
2020/07/05 00:21:18;;;;;;;4.699999;4.3;;;;;;;15.11;89.91016;95543.78;;;;
2020/07/05 00:22:18;;;;;;;4.699999;4.3;;;;;;;15.11;89.91016;95543.78;;;;
2020/07/05 00:23:18;;;;;;;0;0;;;;;;;0;0;0;;;;
2020/07/05 00:24:19;;;;;;;0;0;;;;;;;0;0;0;;;;
2020/07/05 00:25:20;;;;;;;0;0;;;;;;;0;0;0;;;;
2020/07/05 00:26:20;;;;;;;0;0;;;;;;;0;0;0;;;;
2020/07/05 00:27:21;;;;;;;0;0;;;;;;;0;0;0;;;;
2020/07/05 00:28:21;;;;;;;0;0;;;;;;;0;0;0;;;;
2020/07/05 00:29:22;;;;;;;0;0;;;;;;;0;0;0;;;;
2020/07/05 00:30:22;;;;;;;0;0;;;;;;;0;0;0;;;;
2020/07/05 00:31:23;;;;;;;0;0;;;;;;;0;0;0;;;;
2020/07/05 00:32:23;;;;;;;0;0;;;;;;;0;0;0;;;;
2020/07/05 00:33:24;;;;;;;0;0;;;;;;;0;0;0;;;;
2020/07/05 00:34:25;;;;;;;0;0;;;;;;;0;0;0;;;;
2020/07/05 00:35:25;;;;;;;0;0;;;;;;;0;0;0;;;;
2020/07/05 00:36:26;;;;;;;0;0;;;;;;;0;0;0;;;;
2020/07/05 00:37:26;;;;;;;0;0;;;;;;;0;0;0;;;;
2020/07/05 00:38:27;;;;;;;0;0;;;;;;;0;0;0;;;;
2020/07/05 00:39:28;;;;;;;0;0;;;;;;;0;0;0;;;;
2020/07/05 00:40:28;;;;;;;0;0;;;;;;;0;0;0;;;;
2020/07/05 00:41:29;;;;;;;0;0;;;;;;;0;0;0;;;;
2020/07/05 00:42:29;;;;;;;0;0;;;;;;;0;0;0;;;;
2020/07/05 00:43:30;;;;;;;0;0;;;;;;;0;0;0;;;;
2020/07/05 00:44:30;;;;;;;0;0;;;;;;;0;0;0;;;;
2020/07/05 00:45:31;;;;;;;0;0;;;;;;;0;0;0;;;;
2020/07/05 00:46:31;;;;;;;0;0;;;;;;;0;0;0;;;;
2020/07/05 00:47:35;;;;;;;0;0;;;;;;;0;0;0;;;;
2020/07/05 00:48:37;;;;;;;0;0;;;;;;;0;0;0;;;;
2020/07/05 00:49:38;;;;;;;0;0;;;;;;;0;0;0;;;;
2020/07/05 00:50:39;;;;;;;0;0;;;;;;;0;0;0;;;;
2020/07/05 00:51:40;;;;;;;0;0;;;;;;;0;0;0;;;;
2020/07/05 00:52:41;;;;;;;0;0;;;;;;;0;0;0;;;;
2020/07/05 00:53:43;;;;;;;6.800001;4.15;;;;;;;14.46;90.60547;95538.05;;;;
2020/07/05 00:54:44;;;;;;;6.800001;4.15;;;;;;;14.46;90.60547;95538.05;;;;
2020/07/05 00:55:45;;;;;;;6.800001;4.15;;;;;;;14.46;90.60547;95538.05;;;;
2020/07/05 00:56:45;;;;;;;6.800001;4.15;;;;;;;14.46;90.60547;95538.05;;;;
2020/07/05 00:57:46;;;;;;;6.800001;4.15;;;;;;;14.46;90.60547;95538.05;;;;
2020/07/05 00:58:47;;;;;;;6.800001;4.15;;;;;;;14.46;90.60547;95538.05;;;;
2020/07/05 00:59:48;;;;;;;6.800001;4.15;;;;;;;14.46;90.60547;95538.05;;;;
2020/07/05 01:00:48;;;;;;;6.800001;4.15;;;;;;;14.46;90.60547;95538.05;;;;
2020/07/05 01:01:49;;;;;;;6.800001;4.15;;;;;;;14.46;90.60547;95538.05;;;;
2020/07/05 01:02:49;;;;;;;6.800001;4.15;;;;;;;14.46;90.60547;95538.05;;;;
2020/07/05 01:03:51;;;;;;;0;0;;;;;;;0;0;0;;;;
2020/07/05 01:04:51;;;;;;;0;0;;;;;;;0;0;0;;;;
2020/07/05 01:05:51;;;;;;;0;0;;;;;;;0;0;0;;;;
2020/07/05 01:06:58;;;;;;;0;0;;;;;;;0;0;0;;;;
2020/07/05 01:08:00;;;;;;;0;0;;;;;;;0;0;0;;;;
2020/07/05 01:09:02;;;;;;;0;0;;;;;;;0;0;0;;;;
2020/07/05 01:10:09;;;;;;;0;0;;;;;;;0;0;0;;;;
2020/07/05 01:11:10;;;;;;;0;0;;;;;;;0;0;0;;;;
2020/07/05 01:12:11;;;;;;;0;0;;;;;;;0;0;0;;;;
2020/07/05 01:13:12;;;;;;;0;0;;;;;;;0;0;0;;;;
2020/07/05 01:14:13;;;;;;;0;0;;;;;;;0;0;0;;;;
2020/07/05 01:15:14;;;;;;;0;0;;;;;;;0;0;0;;;;
2020/07/05 01:16:18;;;;;;;0;0;;;;;;;0;0;0;;;;
2020/07/05 01:17:19;;;;;;;0;0;;;;;;;0;0;0;;;;
2020/07/05 01:18:19;;;;;;;0;0;;;;;;;0;0;0;;;;
2020/07/05 01:19:20;;;;;;;0;0;;;;;;;0;0;0;;;;
2020/07/05 01:20:20;;;;;;;0;0;;;;;;;0;0;0;;;;
2020/07/05 01:21:25;;;;;;;0;0;;;;;;;0;0;0;;;;
2020/07/05 01:22:26;;;;;;;0;0;;;;;;;0;0;0;;;;
2020/07/05 01:23:26;;;;;;;0;0;;;;;;;0;0;0;;;;
2020/07/05 01:24:28;;;;;;;0;0;;;;;;;0;0;0;;;;
2020/07/05 01:25:29;;;;;;;0;0;;;;;;;0;0;0;;;;
2020/07/05 01:26:30;;;;;;;0;0;;;;;;;0;0;0;;;;
2020/07/05 01:27:31;;;;;;;0;0;;;;;;;0;0;0;;;;
2020/07/05 01:28:31;;;;;;;0;0;;;;;;;0;0;0;;;;
2020/07/05 01:29:32;;;;;;;0;0;;;;;;;0;0;0;;;;
2020/07/05 01:30:32;;;;;;;0;0;;;;;;;0;0;0;;;;
2020/07/05 01:31:33;;;;;;;0;0;;;;;;;0;0;0;;;;
2020/07/05 01:32:34;;;;;;;0;0;;;;;;;0;0;0;;;;
2020/07/05 01:33:35;;;;;;;0;0;;;;;;;0;0;0;;;;
2020/07/05 01:34:36;;;;;;;0;0;;;;;;;0;0;0;;;;
2020/07/05 01:35:36;;;;;;;0;0;;;;;;;0;0;0;;;;
2020/07/05 01:36:37;;;;;;;0;0;;;;;;;0;0;0;;;;
2020/07/05 01:37:37;;;;;;;0;0;;;;;;;0;0;0;;;;
2020/07/05 01:38:38;;;;;;;0;0;;;;;;;0;0;0;;;;
2020/07/05 01:39:38;;;;;;;0;0;;;;;;;0;0;0;;;;
2020/07/05 01:40:39;;;;;;;0;0;;;;;;;0;0;0;;;;
2020/07/05 01:41:39;;;;;;;0;0;;;;;;;0;0;0;;;;
2020/07/05 01:42:40;;;;;;;0;0;;;;;;;0;0;0;;;;
2020/07/05 01:43:41;;;;;;;0;0;;;;;;;0;0;0;;;;
2020/07/05 01:44:42;;;;;;;0;0;;;;;;;0;0;0;;;;
2020/07/05 01:45:42;;;;;;;0;0;;;;;;;0;0;0;;;;
2020/07/05 01:46:44;;;;;;;0;0;;;;;;;0;0;0;;;;
2020/07/05 01:47:46;;;;;;;0;0;;;;;;;0;0;0;;;;
2020/07/05 01:48:49;;;;;;;0;0;;;;;;;0;0;0;;;;
2020/07/05 01:49:50;;;;;;;0;0;;;;;;;0;0;0;;;;
2020/07/05 01:50:50;;;;;;;0;0;;;;;;;0;0;0;;;;
2020/07/05 01:51:51;;;;;;;0;0;;;;;;;0;0;0;;;;
2020/07/05 01:52:51;;;;;;;0;0;;;;;;;0;0;0;;;;
2020/07/05 01:53:52;;;;;;;0;0;;;;;;;0;0;0;;;;
2020/07/05 01:54:53;;;;;;;0;0;;;;;;;0;0;0;;;;
2020/07/05 01:55:53;;;;;;;0;0;;;;;;;0;0;0;;;;
2020/07/05 01:56:54;;;;;;;0;0;;;;;;;0;0;0;;;;
2020/07/05 01:57:54;;;;;;;0;0;;;;;;;0;0;0;;;;
2020/07/05 01:58:55;;;;;;;0;0;;;;;;;0;0;0;;;;
2020/07/05 01:59:55;;;;;;;0;0;;;;;;;0;0;0;;;;
2020/07/05 02:00:56;;;;;;;0;0;;;;;;;0;0;0;;;;
2020/07/05 02:01:56;;;;;;;0;0;;;;;;;0;0;0;;;;
2020/07/05 02:02:57;;;;;;;0;0;;;;;;;0;0;0;;;;
2020/07/05 02:03:57;;;;;;;0;0;;;;;;;0;0;0;;;;
2020/07/05 02:04:58;;;;;;;0;0;;;;;;;0;0;0;;;;
2020/07/05 02:05:58;;;;;;;0;0;;;;;;;0;0;0;;;;
2020/07/05 02:06:59;;;;;;;0;0;;;;;;;0;0;0;;;;
2020/07/05 02:07:59;;;;;;;0;0;;;;;;;0;0;0;;;;
2020/07/05 02:09:00;;;;;;;0;0;;;;;;;0;0;0;;;;
2020/07/05 02:10:00;;;;;;;0;0;;;;;;;0;0;0;;;;
2020/07/05 02:11:01;;;;;;;0;0;;;;;;;0;0;0;;;;
2020/07/05 02:12:02;;;;;;;0;0;;;;;;;0;0;0;;;;
2020/07/05 02:13:03;;;;;;;0;0;;;;;;;0;0;0;;;;
2020/07/05 02:14:03;;;;;;;0;0;;;;;;;0;0;0;;;;
2020/07/05 02:15:04;;;;;;;0;0;;;;;;;0;0;0;;;;
2020/07/05 02:16:07;;;;;;;0;0;;;;;;;0;0;0;;;;
2020/07/05 02:17:08;;;;;;;0;0;;;;;;;0;0;0;;;;
2020/07/05 03:04:11;;;;;;;0;0;;;;;;;0;0;0;;;;
2020/07/05 03:05:11;;;;;;;0;0;;;;;;;0;0;0;;;;
2020/07/05 03:06:12;;;;;;;0;0;;;;;;;0;0;0;;;;
2020/07/05 03:07:12;;;;;;;0;0;;;;;;;0;0;0;;;;
2020/07/05 03:08:13;;;;;;;0;0;;;;;;;0;0;0;;;;
2020/07/05 03:09:13;;;;;;;0;0;;;;;;;0;0;0;;;;
2020/07/05 03:10:16;;;;;;;0;0;;;;;;;0;0;0;;;;
2020/07/05 03:11:17;;;;;;;0;0;;;;;;;0;0;0;;;;
2020/07/05 03:12:17;;;;;;;0;0;;;;;;;0;0;0;;;;
2020/07/05 03:13:18;;;;;;;0;0;;;;;;;0;0;0;;;;
2020/07/05 03:14:18;;;;;;;0;0;;;;;;;0;0;0;;;;
2020/07/05 03:15:19;;;;;;;0;0;;;;;;;0;0;0;;;;
2020/07/05 03:16:19;;;;;;;0;0;;;;;;;0;0;0;;;;
2020/07/05 03:17:20;;;;;;;0;0;;;;;;;0;0;0;;;;
2020/07/05 03:18:20;;;;;;;0;0;;;;;;;0;0;0;;;;
2020/07/05 03:19:21;;;;;;;0;0;;;;;;;0;0;0;;;;
2020/07/05 03:20:22;;;;;;;0;0;;;;;;;0;0;0;;;;
2020/07/05 03:21:22;;;;;;;0;0;;;;;;;0;0;0;;;;
2020/07/05 03:22:23;;;;;;;0;0;;;;;;;0;0;0;;;;
2020/07/05 03:23:23;;;;;;;0;0;;;;;;;0;0;0;;;;
2020/07/05 03:24:24;;;;;;;0;0;;;;;;;0;0;0;;;;
2020/07/05 03:25:24;;;;;;;0;0;;;;;;;0;0;0;;;;
2020/07/05 03:26:25;;;;;;;0;0;;;;;;;0;0;0;;;;
2020/07/05 03:27:26;;;;;;;0;0;;;;;;;0;0;0;;;;
2020/07/05 03:28:26;;;;;;;0;0;;;;;;;0;0;0;;;;
2020/07/05 03:29:27;;;;;;;0;0;;;;;;;0;0;0;;;;
2020/07/05 03:30:28;;;;;;;0;0;;;;;;;0;0;0;;;;
2020/07/05 03:31:28;;;;;;;0;0;;;;;;;0;0;0;;;;
2020/07/05 03:32:29;;;;;;;0;0;;;;;;;0;0;0;;;;
2020/07/05 03:33:29;;;;;;;0;0;;;;;;;0;0;0;;;;
2020/07/05 03:34:30;;;;;;;0;0;;;;;;;0;0;0;;;;
2020/07/05 03:35:30;;;;;;;0;0;;;;;;;0;0;0;;;;
2020/07/05 03:36:31;;;;;;;0;0;;;;;;;0;0;0;;;;
2020/07/05 03:37:32;;;;;;;0;0;;;;;;;0;0;0;;;;
2020/07/05 03:38:32;;;;;;;0;0;;;;;;;0;0;0;;;;
2020/07/05 03:39:34;;;;;;;0;0;;;;;;;0;0;0;;;;
2020/07/05 03:40:34;;;;;;;0;0;;;;;;;0;0;0;;;;
2020/07/05 03:41:35;;;;;;;0;0;;;;;;;0;0;0;;;;
2020/07/05 03:42:38;;;;;;;0;0;;;;;;;0;0;0;;;;
2020/07/05 03:43:42;;;;;;;0;0;;;;;;;0;0;0;;;;
2020/07/05 03:44:43;;;;;;;0;0;;;;;;;0;0;0;;;;
2020/07/05 03:45:54;;;;;;;0;0;;;;;;;0;0;0;;;;
2020/07/05 03:46:57;;;;;;;0;0;;;;;;;0;0;0;;;;
2020/07/05 03:48:04;;;;;;;0;0;;;;;;;0;0;0;;;;
2020/07/05 03:49:11;;;;;;;0;0;;;;;;;0;0;0;;;;
2020/07/05 03:50:13;;;;;;;0;0;;;;;;;0;0;0;;;;
2020/07/05 03:51:17;;;;;;;0;0;;;;;;;0;0;0;;;;
2020/07/05 03:52:19;;;;;;;0;0;;;;;;;0;0;0;;;;
2020/07/05 03:53:19;;;;;;;0;0;;;;;;;0;0;0;;;;
2020/07/05 03:54:20;;;;;;;0;0;;;;;;;0;0;0;;;;
2020/07/05 03:55:21;;;;;;;0;0;;;;;;;0;0;0;;;;
2020/07/05 03:56:22;;;;;;;0;0;;;;;;;0;0;0;;;;
2020/07/05 03:57:24;;;;;;;0;0;;;;;;;0;0;0;;;;
2020/07/05 03:58:27;;;;;;;0;0;;;;;;;0;0;0;;;;
2020/07/05 03:59:36;;;;;;;0;0;;;;;;;0;0;0;;;;
2020/07/05 04:00:37;;;;;;;0;0;;;;;;;0;0;0;;;;
2020/07/05 04:01:38;;;;;;;0;0;;;;;;;0;0;0;;;;
2020/07/05 04:02:43;;;;;;;0;0;;;;;;;0;0;0;;;;
2020/07/05 04:03:47;;;;;;;0;0;;;;;;;0;0;0;;;;
2020/07/05 04:04:49;;;;;;;0;0;;;;;;;0;0;0;;;;
2020/07/05 04:05:50;;;;;;;0;0;;;;;;;0;0;0;;;;
2020/07/05 04:06:51;;;;;;;0;0;;;;;;;0;0;0;;;;
2020/07/05 04:07:52;;;;;;;0;0;;;;;;;0;0;0;;;;
2020/07/05 04:08:52;;;;;;;0;0;;;;;;;0;0;0;;;;
2020/07/05 04:09:53;;;;;;;0;0;;;;;;;0;0;0;;;;
2020/07/05 04:11:06;;;;;;;0;0;;;;;;;0;0;0;;;;
2020/07/05 04:12:10;;;;;;;0;0;;;;;;;0;0;0;;;;
2020/07/05 04:13:10;;;;;;;0;0;;;;;;;0;0;0;;;;
2020/07/05 04:14:11;;;;;;;0;0;;;;;;;0;0;0;;;;
2020/07/05 04:15:13;;;;;;;0;0;;;;;;;0;0;0;;;;
2020/07/05 04:16:17;;;;;;;0;0;;;;;;;0;0;0;;;;
2020/07/05 04:17:19;;;;;;;0;0;;;;;;;0;0;0;;;;
2020/07/05 04:18:20;;;;;;;0;0;;;;;;;0;0;0;;;;
2020/07/05 04:19:20;;;;;;;0;0;;;;;;;0;0;0;;;;
2020/07/05 04:20:21;;;;;;;0;0;;;;;;;0;0;0;;;;
2020/07/05 04:21:21;;;;;;;0;0;;;;;;;0;0;0;;;;
2020/07/05 04:22:22;;;;;;;0;0;;;;;;;0;0;0;;;;
2020/07/05 04:23:23;;;;;;;0;0;;;;;;;0;0;0;;;;
2020/07/05 04:24:23;;;;;;;0;0;;;;;;;0;0;0;;;;
2020/07/05 04:25:24;;;;;;;0;0;;;;;;;0;0;0;;;;
2020/07/05 04:26:24;;;;;;;0;0;;;;;;;0;0;0;;;;
2020/07/05 04:27:25;;;;;;;0;0;;;;;;;0;0;0;;;;
2020/07/05 04:28:26;;;;;;;0;0;;;;;;;0;0;0;;;;
2020/07/05 04:29:26;;;;;;;0;0;;;;;;;0;0;0;;;;
2020/07/05 04:30:27;;;;;;;0;0;;;;;;;0;0;0;;;;
2020/07/05 04:31:28;;;;;;;0;0;;;;;;;0;0;0;;;;
2020/07/05 04:32:29;;;;;;;0;0;;;;;;;0;0;0;;;;
2020/07/05 04:33:29;;;;;;;0;0;;;;;;;0;0;0;;;;
2020/07/05 04:34:30;;;;;;;0;0;;;;;;;0;0;0;;;;
2020/07/05 04:35:30;;;;;;;0;0;;;;;;;0;0;0;;;;
2020/07/05 04:36:31;;;;;;;0;0;;;;;;;0;0;0;;;;
2020/07/05 04:37:31;;;;;;;0;0;;;;;;;0;0;0;;;;
2020/07/05 04:38:32;;;;;;;0;0;;;;;;;0;0;0;;;;
2020/07/05 04:39:33;;;;;;;0;0;;;;;;;0;0;0;;;;
2020/07/05 04:40:33;;;;;;;0;0;;;;;;;0;0;0;;;;
2020/07/05 04:41:34;;;;;;;0;0;;;;;;;0;0;0;;;;
2020/07/05 04:42:34;;;;;;;0;0;;;;;;;0;0;0;;;;
2020/07/05 04:43:35;;;;;;;0;0;;;;;;;0;0;0;;;;
2020/07/05 04:44:36;;;;;;;0;0;;;;;;;0;0;0;;;;
2020/07/05 04:45:36;;;;;;;0;0;;;;;;;0;0;0;;;;
2020/07/05 04:46:37;;;;;;;0;0;;;;;;;0;0;0;;;;
2020/07/05 04:47:38;;;;;;;0;0;;;;;;;0;0;0;;;;
2020/07/05 04:48:39;;;;;;;0;0;;;;;;;0;0;0;;;;
2020/07/05 04:49:39;;;;;;;0;0;;;;;;;0;0;0;;;;
2020/07/05 04:50:40;;;;;;;0;0;;;;;;;0;0;0;;;;
2020/07/05 04:51:41;;;;;;;0;0;;;;;;;0;0;0;;;;
2020/07/05 04:52:41;;;;;;;0;0;;;;;;;0;0;0;;;;
2020/07/05 04:53:42;;;;;;;0;0;;;;;;;0;0;0;;;;
2020/07/05 04:54:42;;;;;;;0;0;;;;;;;0;0;0;;;;
2020/07/05 04:55:43;;;;;;;0;0;;;;;;;0;0;0;;;;
2020/07/05 04:56:44;;;;;;;0;0;;;;;;;0;0;0;;;;
2020/07/05 04:57:47;;;;;;;0;0;;;;;;;0;0;0;;;;
2020/07/05 04:58:49;;;;;;;0;0;;;;;;;0;0;0;;;;
2020/07/05 04:59:50;;;;;;;0;0;;;;;;;0;0;0;;;;
2020/07/05 05:00:51;;;;;;;0;0;;;;;;;0;0;0;;;;
2020/07/05 05:01:53;;;;;;;0;0;;;;;;;0;0;0;;;;
2020/07/05 05:02:55;;;;;;;0;0;;;;;;;0;0;0;;;;
2020/07/05 05:03:58;;;;;;;0;0;;;;;;;0;0;0;;;;
2020/07/05 05:04:58;;;;;;;0;0;;;;;;;0;0;0;;;;
2020/07/05 05:05:59;;;;;;;0;0;;;;;;;0;0;0;;;;
2020/07/05 05:06:59;;;;;;;0;0;;;;;;;0;0;0;;;;
2020/07/05 05:08:04;;;;;;;0;0;;;;;;;0;0;0;;;;
2020/07/05 05:09:04;;;;;;;0;0;;;;;;;0;0;0;;;;
2020/07/05 05:10:08;;;;;;;0;0;;;;;;;0;0;0;;;;
2020/07/05 05:11:10;;;;;;;0;0;;;;;;;0;0;0;;;;
2020/07/05 05:12:14;;;;;;;0;0;;;;;;;0;0;0;;;;
2020/07/05 05:13:18;;;;;;;0;0;;;;;;;0;0;0;;;;
2020/07/05 05:14:20;;;;;;;0;0;;;;;;;0;0;0;;;;
2020/07/05 05:15:20;;;;;;;0;0;;;;;;;0;0;0;;;;
2020/07/05 05:16:22;;;;;;;0;0;;;;;;;0;0;0;;;;
2020/07/05 05:17:25;;;;;;;0;0;;;;;;;0;0;0;;;;
2020/07/05 06:03:29;;;;;;;0;0;;;;;;;0;0;0;;;;
2020/07/05 06:04:30;;;;;;;0;0;;;;;;;0;0;0;;;;
2020/07/05 06:05:30;;;;;;;0;0;;;;;;;0;0;0;;;;
2020/07/05 06:06:31;;;;;;;0;0;;;;;;;0;0;0;;;;
2020/07/05 06:07:32;;;;;;;0;0;;;;;;;0;0;0;;;;
2020/07/05 06:08:32;;;;;;;0;0;;;;;;;0;0;0;;;;
2020/07/05 06:09:33;;;;;;;0;0;;;;;;;0;0;0;;;;
2020/07/05 06:10:33;;;;;;;0;0;;;;;;;0;0;0;;;;
2020/07/05 06:11:34;;;;;;;0;0;;;;;;;0;0;0;;;;
2020/07/05 06:12:34;;;;;;;0;0;;;;;;;0;0;0;;;;
2020/07/05 06:13:35;;;;;;;0;0;;;;;;;0;0;0;;;;
2020/07/05 06:14:36;;;;;;;0;0;;;;;;;0;0;0;;;;
2020/07/05 06:15:36;;;;;;;0;0;;;;;;;0;0;0;;;;
2020/07/05 06:16:37;;;;;;;0;0;;;;;;;0;0;0;;;;
2020/07/05 06:17:37;;;;;;;0;0;;;;;;;0;0;0;;;;
2020/07/05 06:18:38;;;;;;;0;0;;;;;;;0;0;0;;;;
2020/07/05 06:19:38;;;;;;;0;0;;;;;;;0;0;0;;;;
2020/07/05 06:20:39;;;;;;;0;0;;;;;;;0;0;0;;;;
2020/07/05 06:21:40;;;;;;;0;0;;;;;;;0;0;0;;;;
2020/07/05 06:22:40;;;;;;;0;0;;;;;;;0;0;0;;;;
2020/07/05 06:23:41;;;;;;;0;0;;;;;;;0;0;0;;;;
2020/07/05 06:24:42;;;;;;;0;0;;;;;;;0;0;0;;;;
2020/07/05 06:25:42;;;;;;;0;0;;;;;;;0;0;0;;;;
2020/07/05 06:26:43;;;;;;;0;0;;;;;;;0;0;0;;;;
2020/07/05 06:27:43;;;;;;;0;0;;;;;;;0;0;0;;;;
2020/07/05 06:28:44;;;;;;;0;0;;;;;;;0;0;0;;;;
2020/07/05 06:29:44;;;;;;;0;0;;;;;;;0;0;0;;;;
2020/07/05 06:30:45;;;;;;;0;0;;;;;;;0;0;0;;;;
2020/07/05 06:31:45;;;;;;;0;0;;;;;;;0;0;0;;;;
2020/07/05 06:32:46;;;;;;;0;0;;;;;;;0;0;0;;;;
2020/07/05 06:33:46;;;;;;;0;0;;;;;;;0;0;0;;;;
2020/07/05 06:34:47;;;;;;;0;0;;;;;;;0;0;0;;;;
2020/07/05 06:35:47;;;;;;;0;0;;;;;;;0;0;0;;;;
2020/07/05 06:36:48;;;;;;;0;0;;;;;;;0;0;0;;;;
2020/07/05 06:37:48;;;;;;;0;0;;;;;;;0;0;0;;;;
2020/07/05 06:38:49;;;;;;;0;0;;;;;;;0;0;0;;;;
2020/07/05 06:39:50;;;;;;;0;0;;;;;;;0;0;0;;;;
2020/07/05 06:40:50;;;;;;;0;0;;;;;;;0;0;0;;;;
2020/07/05 06:41:51;;;;;;;0;0;;;;;;;0;0;0;;;;
2020/07/05 06:42:51;;;;;;;0;0;;;;;;;0;0;0;;;;
2020/07/05 06:43:52;;;;;;;0;0;;;;;;;0;0;0;;;;
2020/07/05 06:44:52;;;;;;;0;0;;;;;;;0;0;0;;;;
2020/07/05 06:45:53;;;;;;;0;0;;;;;;;0;0;0;;;;
2020/07/05 06:46:54;;;;;;;0;0;;;;;;;0;0;0;;;;
2020/07/05 06:47:55;;;;;;;0;0;;;;;;;0;0;0;;;;
2020/07/05 06:48:55;;;;;;;0;0;;;;;;;0;0;0;;;;
2020/07/05 06:49:56;;;;;;;0;0;;;;;;;0;0;0;;;;
2020/07/05 06:50:57;;;;;;;0;0;;;;;;;0;0;0;;;;
2020/07/05 06:51:57;;;;;;;0;0;;;;;;;0;0;0;;;;
2020/07/05 06:52:58;;;;;;;0;0;;;;;;;0;0;0;;;;
2020/07/05 06:53:58;;;;;;;0;0;;;;;;;0;0;0;;;;
2020/07/05 06:54:59;;;;;;;0;0;;;;;;;0;0;0;;;;
2020/07/05 06:55:59;;;;;;;0;0;;;;;;;0;0;0;;;;
2020/07/05 06:57:00;;;;;;;0;0;;;;;;;0;0;0;;;;
2020/07/05 06:58:00;;;;;;;0;0;;;;;;;0;0;0;;;;
2020/07/05 06:59:01;;;;;;;0;0;;;;;;;0;0;0;;;;
2020/07/05 07:00:01;;;;;;;0;0;;;;;;;0;0;0;;;;
2020/07/05 07:01:02;;;;;;;0;0;;;;;;;0;0;0;;;;
2020/07/05 07:02:03;;;;;;;0;0;;;;;;;0;0;0;;;;
2020/07/05 07:03:04;;;;;;;0;0;;;;;;;0;0;0;;;;
2020/07/05 07:04:05;;;;;;;3.3;2.05;;;;;;;23.68;81.45508;95486.25;;;;
2020/07/05 07:05:05;;;;;;;3.3;2.05;;;;;;;23.68;81.45508;95486.25;;;;
2020/07/05 07:06:07;;;;;;;3.3;2.05;;;;;;;23.68;81.45508;95486.25;;;;
2020/07/05 07:07:07;;;;;;;3.3;2.05;;;;;;;23.68;81.45508;95486.25;;;;
2020/07/05 07:08:08;;;;;;;3.3;2.05;;;;;;;23.68;81.45508;95486.25;;;;
2020/07/05 07:09:08;;;;;;;3.3;2.05;;;;;;;23.68;81.45508;95486.25;;;;
2020/07/05 07:10:12;;;;;;;3.3;2.05;;;;;;;23.68;81.45508;95486.25;;;;
2020/07/05 07:11:12;;;;;;;3.3;2.05;;;;;;;23.68;81.45508;95486.25;;;;
2020/07/05 07:12:13;;;;;;;3.3;2.05;;;;;;;23.68;81.45508;95486.25;;;;
2020/07/05 07:13:13;;;;;;;3.3;2.05;;;;;;;23.68;81.45508;95486.25;;;;
2020/07/05 07:14:14;;;;;;;3.3;2.05;;;;;;;23.68;81.45508;95486.25;;;;
2020/07/05 07:15:14;;;;;;;2.2;2;;;;;;;25.45;75.77246;95493.1;;;;
2020/07/05 07:16:15;;;;;;;2.2;2;;;;;;;25.45;75.77246;95493.1;;;;
2020/07/05 07:17:15;;;;;;;2.2;2;;;;;;;25.45;75.77246;95493.1;;;;
2020/07/05 07:18:16;;;;;;;2.2;2;;;;;;;25.45;75.77246;95493.1;;;;
2020/07/05 07:19:16;;;;;;;2.2;2;;;;;;;25.45;75.77246;95493.1;;;;
2020/07/05 07:20:17;;;;;;;2.2;2;;;;;;;25.45;75.77246;95493.1;;;;
2020/07/05 07:21:17;;;;;;;2.2;2;;;;;;;25.45;75.77246;95493.1;;;;
2020/07/05 07:22:18;;;;;;;2.2;2;;;;;;;25.45;75.77246;95493.1;;;;
2020/07/05 07:23:18;;;;;;;2.2;2;;;;;;;25.45;75.77246;95493.1;;;;
2020/07/05 07:24:19;;;;;;;2.2;2;;;;;;;25.45;75.77246;95493.1;;;;
2020/07/05 07:25:19;;;;;;;2.3;2.1;;;;;;;26.76;70.5625;95507.92;;;;
2020/07/05 07:26:20;;;;;;;2.3;2.1;;;;;;;26.76;70.5625;95507.92;;;;
2020/07/05 07:27:20;;;;;;;2.3;2.1;;;;;;;26.76;70.5625;95507.92;;;;
2020/07/05 07:28:21;;;;;;;2.3;2.1;;;;;;;26.76;70.5625;95507.92;;;;
2020/07/05 07:29:21;;;;;;;2.3;2.1;;;;;;;26.76;70.5625;95507.92;;;;
2020/07/05 07:30:22;;;;;;;2.3;2.1;;;;;;;26.76;70.5625;95507.92;;;;
2020/07/05 07:31:22;;;;;;;2.3;2.1;;;;;;;26.76;70.5625;95507.92;;;;
2020/07/05 07:32:25;;;;;;;2.3;2.1;;;;;;;26.76;70.5625;95507.92;;;;
2020/07/05 07:33:25;;;;;;;2.3;2.1;;;;;;;26.76;70.5625;95507.92;;;;
2020/07/05 07:34:26;;;;;;;2.3;2.1;;;;;;;26.76;70.5625;95507.92;;;;
2020/07/05 07:35:26;;;;;;;2.3;2.1;;;;;;;26.76;70.5625;95507.92;;;;
2020/07/05 07:36:26;;;;;;;2.2;1.9;;;;;;;27.67;67.29395;95509.42;;;;
2020/07/05 07:37:27;;;;;;;2.2;1.9;;;;;;;27.67;67.29395;95509.42;;;;
2020/07/05 07:38:27;;;;;;;2.2;1.9;;;;;;;27.67;67.29395;95509.42;;;;
2020/07/05 07:39:28;;;;;;;2.2;1.9;;;;;;;27.67;67.29395;95509.42;;;;
2020/07/05 07:40:28;;;;;;;2.2;1.9;;;;;;;27.67;67.29395;95509.42;;;;
2020/07/05 07:41:29;;;;;;;2.2;1.9;;;;;;;27.67;67.29395;95509.42;;;;
2020/07/05 07:42:29;;;;;;;2.2;1.9;;;;;;;27.67;67.29395;95509.42;;;;
2020/07/05 07:43:30;;;;;;;2.2;1.9;;;;;;;27.67;67.29395;95509.42;;;;
2020/07/05 07:44:30;;;;;;;2.2;1.9;;;;;;;27.67;67.29395;95509.42;;;;
2020/07/05 07:45:31;;;;;;;2.2;1.9;;;;;;;27.67;67.29395;95509.42;;;;
2020/07/05 07:46:31;;;;;;;2.2;2;;;;;;;28.39;63.24609;95515.48;;;;
2020/07/05 07:47:32;;;;;;;2.2;2;;;;;;;28.39;63.24609;95515.48;;;;
2020/07/05 07:48:33;;;;;;;2.2;2;;;;;;;28.39;63.24609;95515.48;;;;
2020/07/05 07:49:34;;;;;;;2.2;2;;;;;;;28.39;63.24609;95515.48;;;;
2020/07/05 07:50:34;;;;;;;2.2;2;;;;;;;28.39;63.24609;95515.48;;;;
2020/07/05 07:51:35;;;;;;;2.2;2;;;;;;;28.39;63.24609;95515.48;;;;
2020/07/05 07:52:36;;;;;;;2.2;2;;;;;;;28.39;63.24609;95515.48;;;;
2020/07/05 07:53:37;;;;;;;2.2;2;;;;;;;28.39;63.24609;95515.48;;;;
2020/07/05 07:54:37;;;;;;;2.2;2;;;;;;;28.39;63.24609;95515.48;;;;
2020/07/05 07:55:38;;;;;;;2.2;2;;;;;;;28.39;63.24609;95515.48;;;;
2020/07/05 07:56:38;;;;;;;2.2;2;;;;;;;28.39;63.24609;95515.48;;;;
2020/07/05 07:57:39;;;;;;;3.15;2.1;;;;;;;28.52;60.84766;95504.68;;;;
2020/07/05 07:58:39;;;;;;;3.15;2.1;;;;;;;28.52;60.84766;95504.68;;;;
2020/07/05 08:07:44;;;;;;;2.2;2;;;;;;;28.55;60.41602;95496.47;;;;
2020/07/05 08:08:44;;;;;;;2.2;2;;;;;;;28.55;60.41602;95496.47;;;;
2020/07/05 08:09:45;;;;;;;2.2;2;;;;;;;28.55;60.41602;95496.47;;;;
2020/07/05 08:10:46;;;;;;;2.2;2;;;;;;;28.55;60.41602;95496.47;;;;
2020/07/05 08:11:46;;;;;;;2.2;2;;;;;;;28.55;60.41602;95496.47;;;;
2020/07/05 08:12:47;;;;;;;2.2;2;;;;;;;28.55;60.41602;95496.47;;;;
2020/07/05 08:13:48;;;;;;;2.2;2;;;;;;;28.55;60.41602;95496.47;;;;
2020/07/05 08:14:48;;;;;;;2.2;2;;;;;;;28.55;60.41602;95496.47;;;;
2020/07/05 08:15:49;;;;;;;2.2;2;;;;;;;28.55;60.41602;95496.47;;;;
2020/07/05 08:16:49;;;;;;;2.2;2;;;;;;;28.55;60.41602;95496.47;;;;
2020/07/05 08:17:50;;;;;;;2.2;2;;;;;;;28.55;60.41602;95496.47;;;;
2020/07/05 08:18:51;;;;;;;2.55;2.1;;;;;;;28.8;59.19531;95499.52;;;;
2020/07/05 08:19:51;;;;;;;2.55;2.1;;;;;;;28.8;59.19531;95499.52;;;;
2020/07/05 08:20:51;;;;;;;2.55;2.1;;;;;;;28.8;59.19531;95499.52;;;;
2020/07/05 08:21:52;;;;;;;2.55;2.1;;;;;;;28.8;59.19531;95499.52;;;;
2020/07/05 08:22:52;;;;;;;2.55;2.1;;;;;;;28.8;59.19531;95499.52;;;;
2020/07/05 08:23:53;;;;;;;2.55;2.1;;;;;;;28.8;59.19531;95499.52;;;;
2020/07/05 08:24:53;;;;;;;2.55;2.1;;;;;;;28.8;59.19531;95499.52;;;;
2020/07/05 08:25:54;;;;;;;2.55;2.1;;;;;;;28.8;59.19531;95499.52;;;;
2020/07/05 08:26:55;;;;;;;2.55;2.1;;;;;;;28.8;59.19531;95499.52;;;;
2020/07/05 08:27:56;;;;;;;2.55;2.1;;;;;;;28.8;59.19531;95499.52;;;;
2020/07/05 08:28:57;;;;;;;2.7;2.2;;;;;;;29.68;56.41309;95510.36;;;;
2020/07/05 08:29:58;;;;;;;2.7;2.2;;;;;;;29.68;56.41309;95510.36;;;;
2020/07/05 08:30:58;;;;;;;2.7;2.2;;;;;;;29.68;56.41309;95510.36;;;;
2020/07/05 08:31:58;;;;;;;2.7;2.2;;;;;;;29.68;56.41309;95510.36;;;;
2020/07/05 08:32:59;;;;;;;2.7;2.2;;;;;;;29.68;56.41309;95510.36;;;;
2020/07/05 08:34:00;;;;;;;2.7;2.2;;;;;;;29.68;56.41309;95510.36;;;;
2020/07/05 08:35:00;;;;;;;2.7;2.2;;;;;;;29.68;56.41309;95510.36;;;;
2020/07/05 08:36:01;;;;;;;2.7;2.2;;;;;;;29.68;56.41309;95510.36;;;;
2020/07/05 08:37:01;;;;;;;2.7;2.2;;;;;;;29.68;56.41309;95510.36;;;;
2020/07/05 08:38:02;;;;;;;2.7;2.2;;;;;;;29.68;56.41309;95510.36;;;;
2020/07/05 08:39:02;;;;;;;2.7;2.2;;;;;;;29.68;56.41309;95510.36;;;;
2020/07/05 08:40:04;;;;;;;2.4;2.2;;;;;;;30.41;54.13965;95504.4;;;;
2020/07/05 08:41:05;;;;;;;2.4;2.2;;;;;;;30.41;54.13965;95504.4;;;;
2020/07/05 08:42:05;;;;;;;2.4;2.2;;;;;;;30.41;54.13965;95504.4;;;;
2020/07/05 08:43:05;;;;;;;2.4;2.2;;;;;;;30.41;54.13965;95504.4;;;;
2020/07/05 08:44:06;;;;;;;2.4;2.2;;;;;;;30.41;54.13965;95504.4;;;;
2020/07/05 08:45:07;;;;;;;2.4;2.2;;;;;;;30.41;54.13965;95504.4;;;;
2020/07/05 08:46:08;;;;;;;2.4;2.2;;;;;;;30.41;54.13965;95504.4;;;;
2020/07/05 08:47:09;;;;;;;2.4;2.2;;;;;;;30.41;54.13965;95504.4;;;;
2020/07/05 08:48:09;;;;;;;2.4;2.2;;;;;;;30.41;54.13965;95504.4;;;;
2020/07/05 08:49:10;;;;;;;2.4;2.2;;;;;;;30.41;54.13965;95504.4;;;;
2020/07/05 08:50:11;;;;;;;2.3;2;;;;;;;30.18;53.69629;95510.28;;;;
2020/07/05 08:51:13;;;;;;;2.3;2;;;;;;;30.18;53.69629;95510.28;;;;
2020/07/05 08:52:14;;;;;;;2.3;2;;;;;;;30.18;53.69629;95510.28;;;;
2020/07/05 08:53:14;;;;;;;2.3;2;;;;;;;30.18;53.69629;95510.28;;;;
2020/07/05 08:54:15;;;;;;;2.3;2;;;;;;;30.18;53.69629;95510.28;;;;
2020/07/05 08:55:16;;;;;;;2.3;2;;;;;;;30.18;53.69629;95510.28;;;;
2020/07/05 08:56:16;;;;;;;2.3;2;;;;;;;30.18;53.69629;95510.28;;;;
2020/07/05 08:57:17;;;;;;;2.3;2;;;;;;;30.18;53.69629;95510.28;;;;
2020/07/05 08:58:17;;;;;;;2.3;2;;;;;;;30.18;53.69629;95510.28;;;;
2020/07/05 08:59:18;;;;;;;2.3;2;;;;;;;30.18;53.69629;95510.28;;;;
2020/07/05 09:00:18;;;;;;;2.3;2;;;;;;;30.18;53.69629;95510.28;;;;
2020/07/05 09:01:19;;;;;;;3.65;2.3;;;;;;;30.24;52.71191;95494.12;;;;
2020/07/05 09:02:19;;;;;;;3.65;2.3;;;;;;;30.24;52.71191;95494.12;;;;
2020/07/05 09:11:52;;;;;;;3.95;2.3;;;;;;;30.87;51.71387;95492.11;;;;
2020/07/05 09:12:52;;;;;;;3.95;2.3;;;;;;;30.87;51.71387;95492.11;;;;
2020/07/05 09:13:53;;;;;;;3.95;2.3;;;;;;;30.87;51.71387;95492.11;;;;
2020/07/05 09:14:53;;;;;;;3.95;2.3;;;;;;;30.87;51.71387;95492.11;;;;
2020/07/05 09:15:54;;;;;;;3.95;2.3;;;;;;;30.87;51.71387;95492.11;;;;
2020/07/05 09:16:56;;;;;;;3.95;2.3;;;;;;;30.87;51.71387;95492.11;;;;
2020/07/05 09:17:57;;;;;;;3.95;2.3;;;;;;;30.87;51.71387;95492.11;;;;
2020/07/05 09:18:57;;;;;;;3.95;2.3;;;;;;;30.87;51.71387;95492.11;;;;